.
WxDataArchive / Data Records for 2012-02-18
2012-02-17 February 2012 2012-02-19

Data Records for Saturday, 18 February 2012

Time	Temp	Chill	HIndex	Humid	Dewpt	 Wind 	HiWind	WindDir	Rain 	Barom 
-----	----	-----	------	-----	-----	------	------	-------	-----	----- 
00:00	38.9	38.9	38.9	65	28.2	1	4	248	0.00	30.013 
00:05	38.8	38.8	38.8	65	28.1	1	4	248	0.00	30.013 
00:10	38.8	38.8	38.8	65	28.1	0	4	248	0.00	30.013 
00:15	38.8	38.8	38.8	65	28.1	1	2	248	0.00	30.009 
00:20	38.8	38.8	38.8	65	28.1	1	3	248	0.00	30.009 
00:25	38.8	38.8	38.8	65	28.1	0	3	248	0.00	30.009 
00:30	38.9	38.9	38.9	65	28.2	1	2	248	0.00	30.007 
00:35	38.9	38.9	38.9	66	28.5	1	4	248	0.00	30.007 
00:40	39.1	39.1	39.1	66	28.7	1	3	248	0.00	30.007 
00:45	39.2	39.2	39.2	66	28.8	1	5	270	0.00	30.005 
00:50	39.2	39.2	39.2	65	28.4	1	4	248	0.00	30.005 
00:55	39.3	39.3	39.3	65	28.5	1	4	248	0.00	30.005 
01:00	39.5	39.5	39.5	65	28.7	2	6	248	0.00	30.002 
01:05	39.5	39.5	39.5	65	28.7	2	6	248	0.00	30.002 
01:10	39.3	39.3	39.3	65	28.5	1	3	248	0.00	30.002 
01:15	39.2	39.2	39.2	66	28.8	1	4	248	0.00	30.005 
01:20	39.2	39.2	39.2	66	28.8	2	4	248	0.00	30.005 
01:25	39.2	39.2	39.2	66	28.8	1	4	248	0.00	30.005 
01:30	39.2	39.2	39.2	66	28.8	1	4	248	0.00	30.004 
01:35	39.2	39.2	39.2	67	29.2	2	5	248	0.00	30.004 
01:40	39.3	39.3	39.3	67	29.3	2	4	248	0.00	30.004 
01:45	39.3	39.3	39.3	67	29.3	2	6	248	0.00	30.005 
01:50	39.5	39.5	39.5	67	29.5	2	4	248	0.00	30.005 
01:55	39.5	39.5	39.5	67	29.5	3	10	270	0.00	30.005 
02:00	39.5	39.5	39.5	67	29.5	2	9	248	0.00	30.003 
02:05	39.5	39.5	39.5	67	29.5	2	4	248	0.00	30.003 
02:10	39.3	39.3	39.3	68	29.6	2	6	248	0.00	30.003 
02:15	39.2	39.2	39.2	68	29.5	1	5	248	0.00	30.002 
02:20	39.1	39.1	39.1	69	29.8	1	3	248	0.00	30.002 
02:25	38.9	38.9	38.9	69	29.6	2	5	248	0.00	30.002 
02:30	38.8	38.8	38.8	69	29.5	2	4	248	0.00	30.000 
02:35	38.6	38.6	38.6	69	29.3	2	4	248	0.00	30.000 
02:40	38.5	38.5	38.5	70	29.6	2	4	248	0.00	30.000 
02:45	38.3	38.3	38.3	70	29.4	1	4	248	0.00	30.006 
02:50	38.2	38.2	38.2	71	29.6	2	4	225	0.00	30.006 
02:55	38.2	38.2	38.2	71	29.6	2	5	248	0.00	30.006 
03:00	38.0	38.0	38.0	71	29.4	1	4	248	0.00	30.006 
03:05	37.8	37.8	37.8	72	29.6	1	3	248	0.00	30.006 
03:10	37.6	37.6	37.6	72	29.4	1	4	248	0.00	30.006 
03:15	37.5	37.5	37.5	73	29.6	1	2	248	0.00	30.007 
03:20	37.3	37.3	37.3	73	29.5	1	3	248	0.00	30.007 
03:25	37.0	37.0	37.0	73	29.2	1	2	248	0.00	30.007 
03:30	36.9	36.9	36.9	74	29.4	1	4	248	0.00	30.010 
03:35	36.8	36.8	36.8	75	29.6	1	4	248	0.00	30.010 
03:40	36.5	36.5	36.5	75	29.3	1	3	248	0.00	30.010 
03:45	36.3	36.3	36.3	75	29.1	0	2	248	0.00	30.010 
03:50	36.2	36.2	36.2	76	29.4	0	2	248	0.00	30.010 
03:55	36.0	36.0	36.0	77	29.5	1	3	248	0.00	30.010 
04:00	35.9	35.9	35.9	77	29.4	1	3	248	0.00	30.008 
04:05	35.8	35.8	35.8	77	29.3	0	2	248	0.00	30.008 
04:10	35.6	35.6	35.6	77	29.1	0	3	248	0.00	30.008 
04:15	35.5	35.5	35.5	78	29.3	0	2	248	0.00	30.013 
04:20	35.3	35.3	35.3	78	29.1	0	2	248	0.00	30.013 
04:25	35.2	35.2	35.2	79	29.4	0	1	248	0.00	30.013 
04:30	35.0	35.0	35.0	79	29.2	0	2	248	0.00	30.015 
04:35	34.9	34.9	34.9	79	29.1	0	1	248	0.00	30.015 
04:40	34.7	34.7	34.7	80	29.2	0	2	248	0.00	30.015 
04:45	34.6	34.6	34.6	80	29.1	0	1	248	0.00	30.014 
04:50	34.3	34.3	34.3	80	28.8	0	1	248	0.00	30.014 
04:55	34.1	34.1	34.1	81	28.9	0	1	248	0.00	30.014 
05:00	34.0	34.0	34.0	81	28.8	0	2	248	0.00	30.012 
05:05	33.8	33.8	33.8	81	28.6	0	1	248	0.00	30.012 
05:10	33.7	33.7	33.7	81	28.5	0	1	248	0.00	30.012 
05:15	33.7	33.7	33.7	82	28.8	0	1	248	0.00	30.015 
05:20	33.5	33.5	33.5	82	28.6	0	1	248	0.00	30.015 
05:25	33.4	33.4	33.4	82	28.5	0	1	248	0.00	30.015 
05:30	33.2	33.2	33.2	82	28.3	0	1	248	0.00	30.014 
05:35	33.1	33.1	33.1	83	28.5	0	1	248	0.00	30.014 
05:40	33.1	33.1	33.1	83	28.5	0	2	248	0.00	30.014 
05:45	32.9	32.9	32.9	83	28.3	0	1	248	0.00	30.012 
05:50	32.9	32.9	32.9	83	28.3	0	1	248	0.00	30.012 
05:55	32.8	32.8	32.8	83	28.2	0	1	248	0.00	30.012 
06:00	32.7	32.7	32.7	83	28.1	0	0	---	0.00	30.014 
06:05	32.5	32.5	32.5	84	28.2	0	0	---	0.00	30.014 
06:10	32.4	32.4	32.4	84	28.1	0	0	---	0.00	30.014 
06:15	32.2	32.2	32.2	84	27.9	0	0	---	0.00	30.026 
06:20	32.2	32.2	32.2	84	27.9	0	0	---	0.00	30.026 
06:25	32.1	32.1	32.1	85	28.1	0	0	---	0.00	30.026 
06:30	31.9	31.9	31.9	85	27.9	0	0	---	0.00	30.027 
06:35	31.8	31.8	31.8	86	28.1	0	1	248	0.00	30.027 
06:40	31.8	31.8	31.8	86	28.1	0	1	248	0.00	30.027 
06:45	31.6	31.6	31.6	86	27.9	0	0	---	0.00	30.027 
06:50	31.5	31.5	31.5	87	28.1	0	1	248	0.00	30.027 
06:55	31.5	31.5	31.5	87	28.1	0	0	---	0.00	30.027 
07:00	31.3	31.3	31.3	87	27.9	0	1	248	0.00	30.032 
07:05	31.3	31.3	31.3	87	27.9	0	2	248	0.00	30.032 
07:10	31.2	31.2	31.2	87	27.8	0	0	---	0.00	30.032 
07:15	31.2	31.2	31.2	88	28.1	0	0	---	0.00	30.035 
07:20	31.2	31.2	31.2	88	28.1	0	1	248	0.00	30.035 
07:25	31.0	31.0	31.0	88	27.9	0	1	248	0.00	30.035 
07:30	31.0	31.0	31.0	88	27.9	0	1	248	0.00	30.036 
07:35	31.0	31.0	31.0	88	27.9	0	1	248	0.00	30.036 
07:40	30.9	30.9	30.9	88	27.8	0	1	248	0.00	30.036 
07:45	30.9	30.9	30.9	88	27.8	0	2	248	0.00	30.039 
07:50	30.9	30.9	30.9	88	27.8	0	1	248	0.00	30.039 
07:55	30.7	30.7	30.7	88	27.6	0	1	248	0.00	30.039 
08:00	30.7	30.7	30.7	88	27.6	0	1	248	0.00	30.052 
08:05	30.9	30.9	30.9	88	27.8	0	1	248	0.00	30.052 
08:10	30.9	30.9	30.9	88	27.8	0	1	248	0.00	30.052 
08:15	31.0	31.0	31.0	88	27.9	0	2	248	0.00	30.065 
08:20	31.2	31.2	31.2	88	28.1	0	2	248	0.00	30.065 
08:25	31.5	31.5	31.5	88	28.4	0	2	248	0.00	30.065 
08:30	31.8	31.8	31.8	88	28.7	0	2	248	0.00	30.065 
08:35	31.9	31.9	31.9	88	28.8	1	2	248	0.00	30.065 
08:40	32.2	32.2	32.2	87	28.8	0	2	248	0.00	30.065 
08:45	32.5	32.5	32.5	87	29.1	0	2	248	0.00	30.067 
08:50	32.8	32.8	32.8	86	29.1	1	2	248	0.00	30.067 
08:55	32.9	32.9	32.9	85	28.9	1	2	338	0.00	30.067 
09:00	33.2	33.2	33.2	85	29.2	1	2	338	0.00	30.067 
09:05	33.5	33.5	33.5	84	29.2	0	2	338	0.00	30.067 
09:10	34.0	34.0	34.0	83	29.4	0	2	338	0.00	30.067 
09:15	34.3	34.3	34.3	82	29.4	1	2	338	0.00	30.078 
09:20	34.4	34.4	34.4	82	29.5	1	2	315	0.00	30.078 
09:25	34.7	34.7	34.7	81	29.5	1	3	315	0.00	30.078 
09:30	35.0	35.0	35.0	81	29.8	1	2	270	0.00	30.081 
09:35	35.5	35.5	35.5	80	30.0	1	3	270	0.00	30.081 
09:40	35.8	35.8	35.8	79	29.9	1	3	315	0.00	30.081 
09:45	36.2	36.2	36.2	78	30.0	1	3	315	0.00	30.078 
09:50	36.6	36.6	36.6	77	30.1	2	4	270	0.00	30.078 
09:55	36.9	36.9	36.9	76	30.1	1	3	292	0.00	30.078 
10:00	37.0	37.0	37.0	74	29.5	2	5	270	0.00	30.081 
10:05	37.3	37.3	37.3	72	29.1	1	4	315	0.00	30.081 
10:10	37.6	37.6	37.6	72	29.4	2	9	270	0.00	30.081 
10:15	37.6	37.6	37.6	69	28.4	3	7	270	0.00	30.083 
10:20	37.8	37.8	37.8	69	28.6	2	6	315	0.00	30.083 
10:25	37.5	34.4	37.5	69	28.3	4	7	292	0.00	30.083 
10:30	37.8	37.8	37.8	69	28.6	2	6	338	0.00	30.085 
10:35	37.6	37.6	37.6	69	28.4	2	6	338	0.00	30.085 
10:40	37.3	37.3	37.3	69	28.1	3	9	292	0.00	30.085 
10:45	37.2	37.2	37.2	69	28.0	3	7	338	0.00	30.091 
10:50	37.0	37.0	37.0	69	27.8	3	7	270	0.00	30.091 
10:55	37.0	37.0	37.0	69	27.8	2	6	270	0.00	30.091 
11:00	37.5	37.5	37.5	69	28.3	3	7	315	0.00	30.092 
11:05	37.9	37.9	37.9	65	27.2	3	9	338	0.00	30.092 
11:10	38.0	38.0	38.0	64	26.9	3	6	315	0.00	30.092 
11:15	37.8	37.8	37.8	62	26.0	3	8	270	0.00	30.098 
11:20	37.3	37.3	37.3	64	26.3	2	6	338	0.00	30.098 
11:25	36.9	36.9	36.9	63	25.5	3	9	292	0.00	30.098 
11:30	36.6	36.6	36.6	62	24.8	2	5	292	0.00	30.112 
11:35	36.6	36.6	36.6	61	24.4	3	5	270	0.00	30.112 
11:40	36.6	36.6	36.6	62	24.8	1	4	315	0.00	30.112 
11:45	37.6	37.6	37.6	62	25.8	3	7	270	0.00	30.107 
11:50	38.2	38.2	38.2	59	25.2	2	6	0	0.00	30.107 
11:55	37.6	37.6	37.6	58	24.2	2	7	338	0.00	30.107 
12:00	37.0	37.0	37.0	58	23.6	2	6	292	0.00	30.122 
12:05	37.6	37.6	37.6	58	24.2	2	6	315	0.00	30.122 
12:10	37.5	37.5	37.5	56	23.2	2	7	338	0.00	30.122 
12:15	37.9	37.9	37.9	57	24.0	1	9	292	0.00	30.127 
12:20	37.5	37.5	37.5	51	21.0	3	10	292	0.00	30.127 
12:25	36.8	36.8	36.8	51	20.4	2	10	292	0.00	30.127 
12:30	36.8	36.8	36.8	54	21.7	2	5	338	0.00	30.134 
12:35	37.3	37.3	37.3	54	22.2	2	5	338	0.00	30.134 
12:40	38.0	38.0	38.0	53	22.4	2	5	0	0.00	30.134 
12:45	37.6	37.6	37.6	51	21.1	2	7	338	0.00	30.127 
12:50	37.6	37.6	37.6	53	22.0	2	5	292	0.00	30.127 
12:55	38.6	38.6	38.6	53	23.0	1	6	338	0.00	30.127 
13:00	38.8	38.8	38.8	49	21.3	3	10	292	0.00	30.117 
13:05	38.5	38.5	38.5	49	21.0	2	10	338	0.00	30.117 
13:10	37.9	37.9	37.9	49	20.5	2	7	315	0.00	30.117 
13:15	37.8	37.8	37.8	50	20.8	2	6	22	0.00	30.116 
13:20	38.0	38.0	38.0	49	20.6	2	4	22	0.00	30.116 
13:25	38.2	38.2	38.2	46	19.3	3	8	338	0.00	30.116 
13:30	38.2	35.2	38.2	46	19.3	4	9	292	0.00	30.120 
13:35	38.3	38.3	38.3	45	18.8	3	6	292	0.00	30.120 
13:40	38.3	38.3	38.3	47	19.9	3	6	292	0.00	30.120 
13:45	38.5	38.5	38.5	47	20.0	3	7	315	0.00	30.119 
13:50	38.9	38.9	38.9	48	20.9	2	5	338	0.00	30.119 
13:55	39.2	39.2	39.2	47	20.7	2	10	315	0.00	30.119 
14:00	38.2	38.2	38.2	46	19.3	2	5	338	0.00	30.121 
14:05	37.8	37.8	37.8	48	19.9	1	6	270	0.00	30.121 
14:10	38.0	38.0	38.0	48	20.1	2	5	315	0.00	30.121 
14:15	37.8	37.8	37.8	48	19.9	1	5	270	0.00	30.115 
14:20	37.6	37.6	37.6	46	18.7	2	6	315	0.00	30.115 
14:25	37.2	37.2	37.2	46	18.3	3	10	338	0.00	30.115 
14:30	36.9	36.9	36.9	48	19.1	1	5	270	0.00	30.124 
14:35	37.2	37.2	37.2	49	19.8	2	10	315	0.00	30.124 
14:40	37.6	37.6	37.6	50	20.7	2	5	338	0.00	30.124 
14:45	37.9	37.9	37.9	49	20.5	1	5	292	0.00	30.110 
14:50	38.3	38.3	38.3	48	20.4	1	3	292	0.00	30.110 
14:55	38.3	38.3	38.3	48	20.4	1	4	270	0.00	30.110 
15:00	38.3	38.3	38.3	46	19.4	2	6	338	0.00	30.109 
15:05	38.2	38.2	38.2	46	19.3	2	7	292	0.00	30.109 
15:10	38.2	38.2	38.2	47	19.8	1	4	270	0.00	30.109 
15:15	38.3	38.3	38.3	45	18.8	3	8	270	0.00	30.125 
15:20	38.2	38.2	38.2	46	19.3	1	3	315	0.00	30.125 
15:25	38.0	38.0	38.0	46	19.1	1	3	22	0.00	30.125 
15:30	38.0	38.0	38.0	48	20.1	1	4	270	0.00	30.125 
15:35	38.2	38.2	38.2	47	19.8	1	3	45	0.00	30.125 
15:40	38.3	38.3	38.3	48	20.4	0	2	45	0.00	30.125 
15:45	37.8	37.8	37.8	47	19.4	1	3	270	0.00	30.139 
15:50	37.3	37.3	37.3	48	19.4	0	2	112	0.00	30.139 
15:55	36.9	36.9	36.9	47	18.6	1	5	292	0.00	30.139 
16:00	36.8	36.8	36.8	46	18.0	0	2	292	0.00	30.158 
16:05	36.8	36.8	36.8	46	18.0	0	1	292	0.00	30.158 
16:10	37.0	37.0	37.0	47	18.7	0	3	315	0.00	30.158 
16:15	37.8	37.8	37.8	46	18.9	1	3	315	0.00	30.158 
16:20	37.8	37.8	37.8	46	18.9	0	2	22	0.00	30.158 
16:25	37.6	37.6	37.6	46	18.7	1	5	315	0.00	30.158 
16:30	37.2	37.2	37.2	45	17.8	0	2	315	0.00	30.170 
16:35	36.8	36.8	36.8	46	18.0	0	2	315	0.00	30.170 
16:40	36.6	36.6	36.6	48	18.8	1	3	315	0.00	30.170 
16:45	36.9	36.9	36.9	46	18.1	1	4	292	0.00	30.164 
16:50	36.9	36.9	36.9	45	17.6	1	3	270	0.00	30.164 
16:55	36.9	36.9	36.9	46	18.1	1	5	0	0.00	30.164 
17:00	36.8	36.8	36.8	46	18.0	0	2	270	0.00	30.172 
17:05	36.6	36.6	36.6	47	18.3	0	1	270	0.00	30.172 
17:10	36.6	36.6	36.6	49	19.3	1	4	270	0.00	30.172 
17:15	36.5	36.5	36.5	48	18.7	0	2	45	0.00	30.163 
17:20	36.3	36.3	36.3	48	18.5	0	3	45	0.00	30.163 
17:25	36.2	36.2	36.2	48	18.4	1	4	112	0.00	30.163 
17:30	36.0	36.0	36.0	47	17.7	0	2	112	0.00	30.172 
17:35	36.0	36.0	36.0	48	18.2	0	4	270	0.00	30.172 
17:40	35.8	35.8	35.8	48	18.1	0	3	338	0.00	30.172 
17:45	35.6	35.6	35.6	48	17.9	0	1	338	0.00	30.178 
17:50	35.3	35.3	35.3	48	17.6	0	2	338	0.00	30.178 
17:55	35.2	35.2	35.2	48	17.5	0	2	0	0.00	30.178 
18:00	34.9	34.9	34.9	48	17.2	0	2	0	0.00	30.174 
18:05	34.7	34.7	34.7	50	18.0	0	1	0	0.00	30.174 
18:10	34.4	34.4	34.4	50	17.7	0	1	0	0.00	30.174 
18:15	34.1	34.1	34.1	50	17.4	0	1	0	0.00	30.180 
18:20	34.0	34.0	34.0	51	17.8	0	1	0	0.00	30.180 
18:25	33.7	33.7	33.7	51	17.5	0	1	0	0.00	30.180 
18:30	33.5	33.5	33.5	50	16.9	0	1	0	0.00	30.192 
18:35	33.4	33.4	33.4	51	17.2	0	1	0	0.00	30.192 
18:40	33.2	33.2	33.2	51	17.1	0	1	0	0.00	30.192 
18:45	32.9	32.9	32.9	52	17.2	0	0	---	0.00	30.181 
18:50	32.8	32.8	32.8	53	17.6	0	1	0	0.00	30.181 
18:55	32.5	32.5	32.5	54	17.7	0	1	0	0.00	30.181 
19:00	32.4	32.4	32.4	54	17.6	0	2	0	0.00	30.184 
19:05	32.2	32.2	32.2	55	17.9	0	1	0	0.00	30.184 
19:10	32.1	32.1	32.1	55	17.8	0	1	0	0.00	30.184 
19:15	31.8	31.8	31.8	55	17.5	0	1	0	0.00	30.195 
19:20	31.6	31.6	31.6	56	17.7	0	0	---	0.00	30.195 
19:25	31.5	31.5	31.5	57	18.0	0	0	---	0.00	30.195 
19:30	31.2	31.2	31.2	57	17.8	0	1	0	0.00	30.195 
19:35	31.0	31.0	31.0	57	17.6	0	0	---	0.00	30.195 
19:40	30.9	30.9	30.9	58	17.9	0	0	---	0.00	30.195 
19:45	30.6	30.6	30.6	58	17.6	0	0	---	0.00	30.198 
19:50	30.3	30.3	30.3	58	17.3	0	0	---	0.00	30.198 
19:55	30.1	30.1	30.1	58	17.1	0	0	---	0.00	30.198 
20:00	29.8	29.8	29.8	59	17.2	0	0	---	0.00	30.205 
20:05	29.7	29.7	29.7	59	17.1	0	0	---	0.00	30.205 
20:10	29.5	29.5	29.5	60	17.3	0	0	---	0.00	30.205 
20:15	29.3	29.3	29.3	60	17.2	0	0	---	0.00	30.204 
20:20	29.0	29.0	29.0	60	16.9	0	0	---	0.00	30.204 
20:25	28.8	28.8	28.8	61	17.1	0	0	---	0.00	30.204 
20:30	28.5	28.5	28.5	61	16.8	0	0	---	0.00	30.199 
20:35	28.4	28.4	28.4	62	17.1	0	0	---	0.00	30.199 
20:40	28.2	28.2	28.2	62	16.9	0	0	---	0.00	30.199 
20:45	28.1	28.1	28.1	62	16.8	0	0	---	0.00	30.202 
20:50	27.9	27.9	27.9	62	16.6	0	0	---	0.00	30.202 
20:55	27.9	27.9	27.9	63	17.0	0	1	0	0.00	30.202 
21:00	27.9	27.9	27.9	63	17.0	0	0	---	0.00	30.203 
21:05	27.9	27.9	27.9	63	17.0	0	0	---	0.00	30.203 
21:10	27.8	27.8	27.8	63	16.9	0	0	---	0.00	30.203 
21:15	27.6	27.6	27.6	63	16.7	0	0	---	0.00	30.198 
21:20	27.6	27.6	27.6	63	16.7	0	0	---	0.00	30.198 
21:25	27.5	27.5	27.5	64	16.9	0	0	---	0.00	30.198 
21:30	27.5	27.5	27.5	65	17.3	0	1	0	0.00	30.191 
21:35	27.5	27.5	27.5	65	17.3	0	0	---	0.00	30.191 
21:40	27.6	27.6	27.6	65	17.4	0	1	0	0.00	30.191 
21:45	27.6	27.6	27.6	64	17.0	0	0	---	0.00	30.198 
21:50	27.6	27.6	27.6	64	17.0	0	1	0	0.00	30.198 
21:55	27.6	27.6	27.6	64	17.0	0	1	0	0.00	30.198 
22:00	27.6	27.6	27.6	64	17.0	0	1	0	0.00	30.197 
22:05	27.6	27.6	27.6	65	17.4	0	0	---	0.00	30.197 
22:10	27.5	27.5	27.5	65	17.3	0	0	---	0.00	30.197 
22:15	27.3	27.3	27.3	65	17.1	0	0	---	0.00	30.195 
22:20	27.2	27.2	27.2	65	17.0	0	1	0	0.00	30.195 
22:25	27.0	27.0	27.0	65	16.8	0	0	---	0.00	30.195 
22:30	26.9	26.9	26.9	66	17.1	0	0	---	0.00	30.197 
22:35	26.7	26.7	26.7	67	17.2	0	0	---	0.00	30.197 
22:40	26.6	26.6	26.6	67	17.1	0	0	---	0.00	30.197 
22:45	26.4	26.4	26.4	67	17.0	0	0	---	0.00	30.199 
22:50	26.1	26.1	26.1	67	16.7	0	0	---	0.00	30.199 
22:55	26.0	26.0	26.0	68	16.9	0	0	---	0.00	30.199 
23:00	25.7	25.7	25.7	68	16.6	0	0	---	0.00	30.201 
23:05	25.6	25.6	25.6	69	16.9	0	0	---	0.00	30.201 
23:10	25.4	25.4	25.4	69	16.7	0	0	---	0.00	30.201 
23:15	25.3	25.3	25.3	70	16.9	0	0	---	0.00	30.212 
23:20	25.1	25.1	25.1	71	17.0	0	0	---	0.00	30.212 
23:25	24.8	24.8	24.8	71	16.8	0	0	---	0.00	30.212 
23:30	24.7	24.7	24.7	72	17.0	0	0	---	0.00	30.202 
23:35	24.5	24.5	24.5	72	16.8	0	0	---	0.00	30.202 
23:40	24.4	24.4	24.4	73	17.0	0	0	---	0.00	30.202 
23:45	24.4	24.4	24.4	73	17.0	0	0	---	0.00	30.200 
23:50	24.2	24.2	24.2	73	16.8	0	0	---	0.00	30.200 
23:55	24.2	24.2	24.2	73	16.8	0	0	---	0.00	30.200 

CoCoRaHS
IN-AL-39
A2 Web Hosting
Creative Commons License
GoDaddy
search engine by freefind advanced

loaded 2018-11-13 23:54:49 • last modified 2010-11-18 10:43:29
Privacy PolicyDisclaimer
• wx.awcolley.com is powered by PmWiki v.2002016 •
• all content (unless otherwise noted) © 2018 A W Colley